createdAt,value
2018-06-09T00:00:07.281Z,87.20
2018-06-09T00:02:35.208Z,87.20
2018-06-09T00:05:03.113Z,87.10
2018-06-09T00:07:30.945Z,87.30
2018-06-09T00:09:58.785Z,87.40
2018-06-09T00:12:26.535Z,87.50
2018-06-09T00:14:54.325Z,88.20
2018-06-09T00:17:22.269Z,88.30
2018-06-09T00:19:50.109Z,88.30
2018-06-09T00:22:18.656Z,88.50
2018-06-09T00:24:46.451Z,89.00
2018-06-09T00:27:14.205Z,89.20
2018-06-09T00:29:42.067Z,89.60
2018-06-09T00:32:10.000Z,89.90
2018-06-09T00:34:37.861Z,90.10
2018-06-09T00:37:05.718Z,90.20
2018-06-09T00:39:33.623Z,90.70
2018-06-09T00:42:01.561Z,90.20
2018-06-09T00:44:29.367Z,90.20
2018-06-09T00:46:57.145Z,90.20
2018-06-09T00:49:24.978Z,90.30
2018-06-09T00:51:52.805Z,90.30
2018-06-09T00:54:20.625Z,90.20
2018-06-09T00:56:48.522Z,90.20
2018-06-09T00:59:16.372Z,90.10
2018-06-09T01:01:44.225Z,90.00
2018-06-09T01:04:12.125Z,89.70
2018-06-09T01:06:39.870Z,89.50
2018-06-09T01:09:08.554Z,89.40
2018-06-09T01:11:36.343Z,89.30
2018-06-09T01:14:04.244Z,89.20
2018-06-09T01:16:32.036Z,89.90
2018-06-09T01:18:59.957Z,89.00
2018-06-09T01:21:27.720Z,89.00
2018-06-09T01:23:55.632Z,89.10
2018-06-09T01:26:23.424Z,89.20
2018-06-09T01:28:51.353Z,89.30
2018-06-09T01:31:19.190Z,89.50
2018-06-09T01:33:46.950Z,90.30
2018-06-09T01:36:14.743Z,90.10
2018-06-09T01:38:42.549Z,90.20
2018-06-09T01:41:10.330Z,90.30
2018-06-09T01:43:38.069Z,90.50
2018-06-09T01:46:05.936Z,90.60
2018-06-09T01:48:33.779Z,90.80
2018-06-09T01:51:01.524Z,90.90
2018-06-09T01:53:29.306Z,90.70
2018-06-09T01:55:57.171Z,91.00
2018-06-09T01:58:24.937Z,91.10
2018-06-09T02:00:52.745Z,91.30
2018-06-09T02:03:20.521Z,91.40
2018-06-09T02:05:48.220Z,91.30
2018-06-09T02:08:16.013Z,91.40
2018-06-09T02:10:43.807Z,91.60
2018-06-09T02:13:11.657Z,91.70
2018-06-09T02:15:39.508Z,91.80
2018-06-09T02:18:07.384Z,91.90
2018-06-09T02:20:35.252Z,92.00
2018-06-09T02:23:03.090Z,92.10
2018-06-09T02:25:30.975Z,92.30
2018-06-09T02:30:26.659Z,92.50
2018-06-09T02:32:54.436Z,92.50
2018-06-09T02:35:22.302Z,92.40
2018-06-09T02:37:50.184Z,92.50
2018-06-09T02:40:18.161Z,92.50
2018-06-09T02:42:46.048Z,92.60
2018-06-09T02:45:13.849Z,92.70
2018-06-09T02:47:41.636Z,92.80
2018-06-09T02:50:09.478Z,92.90
2018-06-09T02:52:37.253Z,93.00
2018-06-09T02:55:05.113Z,93.10
2018-06-09T02:57:32.917Z,93.00
2018-06-09T03:00:00.785Z,93.10
2018-06-09T03:02:28.645Z,93.30
2018-06-09T03:04:56.460Z,93.30
2018-06-09T03:07:24.270Z,93.40
2018-06-09T03:09:52.146Z,93.70
2018-06-09T03:12:19.978Z,93.30
2018-06-09T03:14:47.871Z,93.60
2018-06-09T03:17:15.664Z,93.30
2018-06-09T03:19:43.589Z,93.30
2018-06-09T03:22:11.406Z,93.40
2018-06-09T03:24:39.257Z,93.40
2018-06-09T03:27:07.116Z,93.70
2018-06-09T03:29:34.940Z,93.50
2018-06-09T03:32:02.756Z,93.70
2018-06-09T03:34:30.564Z,93.60
2018-06-09T03:36:58.480Z,93.50
2018-06-09T03:39:26.381Z,93.50
2018-06-09T03:41:54.217Z,93.40
2018-06-09T03:44:22.028Z,93.40
2018-06-09T03:46:49.884Z,93.30
2018-06-09T03:49:17.728Z,93.30
2018-06-09T03:51:45.700Z,93.30
2018-06-09T03:54:13.517Z,93.20
2018-06-09T03:56:41.325Z,93.20
2018-06-09T03:59:09.126Z,93.20
2018-06-09T04:04:04.774Z,93.10
2018-06-09T04:06:32.689Z,93.00
2018-06-09T04:09:00.486Z,93.00
2018-06-09T04:11:28.246Z,93.00
2018-06-09T04:13:56.080Z,92.90
2018-06-09T04:16:23.892Z,92.80
2018-06-09T04:18:51.668Z,92.70
2018-06-09T04:21:19.580Z,92.60
2018-06-09T04:23:47.384Z,92.50
2018-06-09T04:26:15.198Z,92.40
2018-06-09T04:28:42.945Z,92.30
2018-06-09T04:31:10.771Z,92.30
2018-06-09T04:33:38.612Z,92.20
2018-06-09T04:36:06.445Z,92.10
2018-06-09T04:38:34.206Z,92.00
2018-06-09T04:41:02.056Z,92.00
2018-06-09T04:43:29.798Z,91.90
2018-06-09T04:45:57.714Z,91.90
2018-06-09T04:48:25.617Z,91.70
2018-06-09T04:50:53.465Z,90.60
2018-06-09T04:53:21.209Z,88.30
2018-06-09T04:55:48.976Z,85.20
2018-06-09T04:58:16.755Z,83.50
2018-06-09T05:00:44.503Z,81.90
2018-06-09T05:03:12.252Z,79.80
2018-06-09T05:05:40.024Z,77.70
2018-06-09T05:08:07.753Z,76.40
2018-06-09T05:13:03.369Z,75.10
2018-06-09T05:15:31.132Z,74.00
2018-06-09T05:17:58.853Z,73.00
2018-06-09T05:20:26.646Z,71.20
2018-06-09T05:22:54.469Z,69.10
2018-06-09T05:25:22.224Z,68.00
2018-06-09T05:27:49.948Z,67.20
2018-06-09T05:30:17.691Z,68.00
2018-06-09T05:32:45.556Z,68.10
2018-06-09T05:35:13.345Z,68.60
2018-06-09T05:37:41.193Z,69.60
2018-06-09T05:40:08.969Z,70.50
2018-06-09T05:42:36.813Z,71.20
2018-06-09T05:45:04.609Z,72.40
2018-06-09T05:47:32.431Z,71.00
2018-06-09T05:50:00.200Z,69.50
2018-06-09T05:52:28.056Z,67.70
2018-06-09T05:54:55.829Z,67.20
2018-06-09T05:57:23.678Z,66.00
2018-06-09T05:59:51.468Z,65.70
2018-06-09T06:02:19.239Z,65.30
2018-06-09T06:04:47.023Z,64.70
2018-06-09T06:07:14.853Z,64.40
2018-06-09T06:09:42.694Z,63.60
2018-06-09T06:12:10.403Z,62.90
2018-06-09T06:14:38.092Z,61.60
2018-06-09T06:17:05.993Z,60.00
2018-06-09T06:19:33.772Z,58.40
2018-06-09T06:22:01.640Z,56.80
2018-06-09T06:24:29.510Z,56.00
2018-06-09T06:26:57.324Z,54.60
2018-06-09T06:29:25.101Z,54.00
2018-06-09T06:31:52.900Z,54.10
2018-06-09T06:34:20.620Z,54.50
2018-06-09T06:36:48.456Z,55.00
2018-06-09T06:39:16.265Z,55.40
2018-06-09T06:41:44.060Z,55.10
2018-06-09T06:44:11.882Z,54.40
2018-06-09T06:46:39.681Z,53.70
2018-06-09T06:49:07.476Z,52.90
2018-06-09T06:51:35.221Z,51.80
2018-06-09T06:54:03.037Z,50.70
2018-06-09T06:56:30.828Z,49.60
2018-06-09T06:58:58.677Z,49.10
2018-06-09T07:01:26.504Z,48.10
2018-06-09T07:03:54.352Z,47.10
2018-06-09T07:08:49.900Z,45.10
2018-06-09T07:11:17.707Z,44.00
2018-06-09T07:13:45.513Z,43.20
2018-06-09T07:16:13.241Z,42.80
2018-06-09T07:18:41.017Z,42.70
2018-06-09T07:21:08.863Z,43.20
2018-06-09T07:23:36.677Z,43.40
2018-06-09T07:28:32.397Z,43.10
2018-06-09T07:31:00.153Z,42.90
2018-06-09T07:33:27.946Z,42.30
2018-06-09T07:35:55.750Z,41.60
2018-06-09T07:38:23.577Z,40.30
2018-06-09T07:40:51.396Z,40.00
2018-06-09T07:43:19.173Z,39.70
2018-06-09T07:45:47.035Z,39.30
2018-06-09T07:48:14.779Z,38.90
2018-06-09T07:50:42.561Z,38.50
2018-06-09T07:53:10.231Z,38.10
2018-06-09T07:55:37.970Z,37.70
2018-06-09T07:58:05.708Z,37.50
2018-06-09T08:00:33.433Z,37.10
2018-06-09T08:03:01.201Z,36.90
2018-06-09T08:05:28.985Z,36.50
2018-06-09T08:07:56.704Z,37.00
2018-06-09T08:10:24.511Z,36.40
2018-06-09T08:26:52.197Z,36.10
2018-06-09T08:29:19.918Z,35.30
2018-06-09T08:31:47.628Z,35.40
2018-06-09T08:34:15.417Z,35.80
2018-06-09T08:36:43.199Z,36.00
2018-06-09T08:39:10.963Z,35.50
2018-06-09T08:41:38.729Z,35.30
2018-06-09T08:44:06.465Z,35.00
2018-06-09T08:46:34.254Z,35.10
2018-06-09T08:49:02.250Z,35.10
2018-06-09T08:51:30.050Z,35.00
2018-06-09T08:53:57.872Z,35.00
2018-06-09T08:56:25.577Z,34.80
2018-06-09T08:58:53.272Z,34.40
2018-06-09T09:01:21.042Z,34.40
2018-06-09T09:03:48.825Z,34.20
2018-06-09T09:06:16.557Z,34.20
2018-06-09T09:08:44.322Z,34.10
2018-06-09T09:11:12.203Z,34.40
2018-06-09T09:13:39.980Z,34.50
2018-06-09T09:16:26.718Z,34.60
2018-06-09T09:18:54.433Z,34.80
2018-06-09T09:21:22.230Z,34.70
2018-06-09T09:23:50.073Z,34.60
2018-06-09T09:26:17.744Z,33.40
2018-06-09T09:28:45.485Z,33.20
2018-06-09T09:31:13.198Z,33.50
2018-06-09T09:33:40.893Z,32.30
2018-06-09T09:36:08.698Z,32.10
2018-06-09T09:38:36.447Z,32.70
2018-06-09T09:41:04.207Z,33.10
2018-06-09T09:43:45.224Z,33.00
2018-06-09T09:46:12.974Z,33.10
2018-06-09T09:48:40.711Z,32.80
2018-06-09T09:51:08.390Z,32.10
2018-06-09T09:53:36.116Z,32.00
2018-06-09T09:56:03.908Z,32.00
2018-06-09T09:58:31.700Z,31.90
2018-06-09T10:00:59.418Z,31.70
2018-06-09T10:03:27.232Z,31.70
2018-06-09T10:05:55.016Z,31.20
2018-06-09T10:08:22.769Z,31.80
2018-06-09T10:10:50.609Z,31.90
2018-06-09T10:13:18.370Z,31.60
2018-06-09T10:15:46.117Z,31.60
2018-06-09T10:18:13.918Z,30.90
2018-06-09T10:20:41.699Z,30.60
2018-06-09T10:23:39.969Z,30.10
2018-06-09T10:26:07.772Z,30.10
2018-06-09T10:28:35.572Z,31.50
2018-06-09T10:31:03.429Z,31.80
2018-06-09T10:33:31.368Z,32.80
2018-06-09T10:35:59.253Z,33.70
2018-06-09T10:38:50.736Z,34.60
2018-06-09T10:41:18.440Z,35.30
2018-06-09T10:43:46.223Z,35.60
2018-06-09T10:46:14.021Z,35.70
2018-06-09T10:48:41.813Z,34.90
2018-06-09T10:51:09.622Z,34.00
2018-06-09T10:53:37.417Z,33.70
2018-06-09T10:56:05.263Z,33.30
2018-06-09T10:58:32.997Z,33.50
2018-06-09T11:01:00.796Z,32.90
2018-06-09T11:03:28.565Z,32.50
2018-06-09T11:05:56.284Z,32.90
2018-06-09T11:08:24.101Z,32.80
2018-06-09T11:10:51.941Z,32.50
2018-06-09T11:13:19.753Z,32.20
2018-06-09T11:18:15.286Z,32.10
2018-06-09T11:20:43.033Z,32.40
2018-06-09T11:23:10.812Z,32.00
2018-06-09T11:25:38.660Z,31.80
2018-06-09T11:28:12.097Z,32.10
2018-06-09T11:33:44.922Z,32.00
2018-06-09T11:36:12.729Z,32.10
2018-06-09T11:38:40.455Z,33.30
2018-06-09T11:41:08.226Z,32.80
2018-06-09T11:43:36.112Z,32.50
2018-06-09T11:46:03.937Z,31.80
2018-06-09T11:48:31.713Z,31.50
2018-06-09T11:50:59.449Z,31.40
2018-06-09T11:53:27.253Z,31.20
2018-06-09T11:55:55.088Z,31.10
2018-06-09T11:58:22.881Z,31.00
2018-06-09T12:00:50.640Z,30.60
2018-06-09T12:03:18.505Z,30.30
2018-06-09T12:05:46.301Z,30.00
2018-06-09T12:08:14.100Z,29.90
2018-06-09T12:10:41.829Z,30.00
2018-06-09T12:13:09.568Z,30.80
2018-06-09T12:15:37.357Z,31.90
2018-06-09T12:18:05.192Z,31.30
2018-06-09T12:20:33.008Z,31.30
2018-06-09T12:25:28.533Z,31.50
2018-06-09T12:27:56.302Z,31.40
2018-06-09T12:30:24.155Z,31.00
2018-06-09T12:32:52.003Z,31.30
2018-06-09T12:35:19.784Z,31.80
2018-06-09T12:37:47.478Z,32.00
2018-06-09T12:40:15.320Z,32.30
2018-06-09T12:42:43.121Z,32.70
2018-06-09T12:45:10.953Z,33.50
2018-06-09T12:47:38.803Z,33.50
2018-06-09T12:50:06.580Z,33.70
2018-06-09T12:52:34.348Z,33.80
2018-06-09T12:55:02.146Z,33.80
2018-06-09T12:57:29.972Z,34.00
2018-06-09T12:59:57.872Z,33.70
2018-06-09T13:02:25.710Z,33.50
2018-06-09T13:04:53.463Z,33.30
2018-06-09T13:07:21.681Z,33.40
2018-06-09T13:09:49.444Z,33.00
2018-06-09T13:12:17.264Z,32.70
2018-06-09T13:14:45.077Z,32.50
2018-06-09T13:17:12.866Z,32.20
2018-06-09T13:19:40.556Z,32.20
2018-06-09T13:22:08.464Z,31.00
2018-06-09T13:24:36.236Z,30.80
2018-06-09T13:27:04.058Z,31.50
2018-06-09T13:29:31.810Z,30.90
2018-06-09T13:31:59.592Z,30.60
2018-06-09T13:34:27.372Z,31.00
2018-06-09T13:36:55.212Z,31.10
2018-06-09T13:39:22.997Z,31.10
2018-06-09T13:42:03.224Z,31.10
2018-06-09T13:44:30.999Z,31.50
2018-06-09T13:46:58.781Z,31.80
2018-06-09T13:49:26.604Z,32.00
2018-06-09T13:51:54.360Z,32.10
2018-06-09T13:54:22.263Z,32.10
2018-06-09T13:56:50.049Z,32.10
2018-06-09T13:59:17.776Z,32.30
2018-06-09T14:01:45.569Z,32.30
2018-06-09T14:04:13.352Z,32.40
2018-06-09T14:06:41.096Z,32.40
2018-06-09T14:09:08.920Z,32.30
2018-06-09T14:11:36.738Z,32.20
2018-06-09T14:14:04.489Z,32.20
2018-06-09T14:22:11.610Z,32.30
2018-06-09T14:24:39.353Z,32.20
2018-06-09T14:27:07.692Z,32.20
2018-06-09T14:29:35.493Z,32.40
2018-06-09T14:32:03.352Z,32.60
2018-06-09T14:37:18.805Z,32.70
2018-06-09T14:39:46.620Z,32.80
2018-06-09T14:42:14.421Z,31.50
2018-06-09T14:44:42.134Z,31.60
2018-06-09T14:47:09.972Z,31.60
2018-06-09T14:49:37.787Z,32.30
2018-06-09T14:52:05.503Z,31.80
2018-06-09T14:54:33.345Z,31.60
2018-06-09T14:57:01.206Z,31.80
2018-06-09T14:59:30.950Z,31.90
2018-06-09T15:01:59.925Z,32.20
2018-06-09T15:04:27.677Z,32.40
2018-06-09T15:06:55.509Z,33.30
2018-06-09T15:09:23.373Z,32.90
2018-06-09T15:11:51.188Z,33.30
2018-06-09T15:14:18.977Z,33.60
2018-06-09T15:16:46.765Z,33.90
2018-06-09T15:19:14.661Z,34.50
2018-06-09T15:21:42.541Z,34.40
2018-06-09T15:24:10.310Z,34.50
2018-06-09T15:26:38.141Z,34.70
2018-06-09T15:29:05.959Z,34.90
2018-06-09T15:31:33.819Z,35.10
2018-06-09T15:34:01.660Z,36.00
2018-06-09T15:36:29.558Z,37.30
2018-06-09T15:38:57.342Z,38.60
2018-06-09T15:41:25.200Z,39.80
2018-06-09T15:43:53.122Z,40.80
2018-06-09T15:46:20.908Z,41.20
2018-06-09T15:48:48.780Z,41.50
2018-06-09T15:51:16.612Z,41.80
2018-06-09T15:56:12.256Z,40.20
2018-06-09T15:58:40.038Z,39.50
2018-06-09T16:01:07.840Z,39.20
2018-06-09T16:03:35.620Z,39.10
2018-06-09T16:06:03.462Z,39.20
2018-06-09T16:08:31.239Z,39.40
2018-06-09T16:10:59.018Z,39.30
2018-06-09T16:13:26.860Z,39.80
2018-06-09T16:15:54.654Z,40.60
2018-06-09T16:18:22.364Z,40.90
2018-06-09T16:20:50.164Z,41.50
2018-06-09T16:23:17.945Z,42.60
2018-06-09T16:25:45.823Z,43.50
2018-06-09T16:31:33.021Z,44.60
2018-06-09T16:34:00.773Z,45.40
2018-06-09T16:36:28.647Z,46.80
2018-06-09T16:38:56.439Z,46.40
2018-06-09T16:41:24.257Z,46.60
2018-06-09T16:43:52.049Z,46.80
2018-06-09T16:46:19.800Z,47.10
2018-06-09T16:48:47.532Z,47.60
2018-06-09T16:51:15.315Z,48.00
2018-06-09T16:53:43.102Z,48.00
2018-06-09T16:56:10.892Z,48.00
2018-06-09T16:58:38.631Z,47.90
2018-06-09T17:01:06.398Z,48.10
2018-06-09T17:03:34.216Z,48.50
2018-06-09T17:06:02.020Z,49.10
2018-06-09T17:08:29.845Z,49.90
2018-06-09T17:10:57.593Z,50.40
2018-06-09T17:13:25.397Z,51.00
2018-06-09T17:15:53.208Z,51.50
2018-06-09T17:18:20.982Z,52.20
2018-06-09T17:20:48.761Z,52.50
2018-06-09T17:23:16.553Z,53.00
2018-06-09T17:25:44.416Z,53.60
2018-06-09T17:28:12.272Z,54.00
2018-06-09T17:30:40.077Z,54.20
2018-06-09T17:33:07.927Z,54.30
2018-06-09T17:35:35.651Z,54.60
2018-06-09T17:38:03.517Z,54.90
2018-06-09T17:40:31.317Z,55.10
2018-06-09T17:42:59.121Z,55.30
2018-06-09T17:45:26.956Z,55.70
2018-06-09T17:47:54.803Z,55.70
2018-06-09T17:50:22.632Z,55.80
2018-06-09T17:52:50.484Z,56.20
2018-06-09T17:55:18.294Z,55.50
2018-06-09T17:57:46.128Z,55.80
2018-06-09T18:00:13.851Z,55.90
2018-06-09T18:02:41.672Z,56.10
2018-06-09T18:05:09.471Z,56.20
2018-06-09T18:07:37.267Z,56.50
2018-06-09T18:10:05.257Z,57.30
2018-06-09T18:12:33.214Z,56.80
2018-06-09T18:15:01.013Z,56.90
2018-06-09T18:17:28.888Z,57.10
2018-06-09T18:19:56.749Z,57.30
2018-06-09T18:22:24.536Z,57.50
2018-06-09T18:24:52.401Z,57.50
2018-06-09T18:27:22.305Z,57.70
2018-06-09T18:29:50.141Z,57.80
2018-06-09T18:32:17.974Z,58.00
2018-06-09T18:34:45.785Z,58.20
2018-06-09T18:37:13.562Z,58.60
2018-06-09T18:39:41.489Z,58.90
2018-06-09T18:42:09.321Z,59.50
2018-06-09T18:44:37.143Z,59.80
2018-06-09T18:47:05.114Z,60.00
2018-06-09T18:49:32.981Z,60.20
2018-06-09T18:52:00.851Z,60.40
2018-06-09T18:54:28.644Z,60.60
2018-06-09T18:56:56.442Z,61.00
2018-06-09T18:59:24.307Z,61.90
2018-06-09T19:01:52.133Z,61.30
2018-06-09T19:04:20.023Z,61.70
2018-06-09T19:06:47.819Z,62.10
2018-06-09T19:09:15.659Z,62.60
2018-06-09T19:11:43.525Z,63.10
2018-06-09T19:14:11.398Z,63.40
2018-06-09T19:16:54.239Z,63.70
2018-06-09T19:19:22.704Z,64.40
2018-06-09T19:21:50.394Z,65.90
2018-06-09T19:24:18.161Z,66.80
2018-06-09T19:26:45.968Z,67.30
2018-06-09T19:29:13.814Z,68.30
2018-06-09T19:31:41.657Z,70.10
2018-06-09T19:34:09.484Z,71.40
2018-06-09T19:36:37.423Z,71.80
2018-06-09T19:39:07.305Z,72.30
2018-06-09T19:41:35.641Z,73.00
2018-06-09T19:44:03.545Z,74.00
2018-06-09T19:46:31.408Z,74.50
2018-06-09T19:48:59.297Z,74.50
2018-06-09T19:51:27.249Z,74.90
2018-06-09T19:53:55.121Z,75.40
2018-06-09T19:56:22.941Z,75.40
2018-06-09T19:58:50.784Z,75.80
2018-06-09T20:01:18.670Z,76.60
2018-06-09T20:03:46.509Z,76.30
2018-06-09T20:06:14.397Z,77.00
2018-06-09T20:08:42.156Z,77.40
2018-06-09T20:17:33.356Z,78.70
2018-06-09T20:20:01.168Z,80.40
2018-06-09T20:22:29.025Z,81.60
2018-06-09T20:24:56.869Z,82.60
2018-06-09T20:27:24.671Z,84.20
2018-06-09T20:29:56.416Z,84.10
2018-06-09T20:32:24.298Z,84.60
2018-06-09T20:34:52.225Z,85.20
2018-06-09T20:37:20.040Z,85.90
2018-06-09T20:39:47.839Z,86.60
2018-06-09T20:42:15.644Z,86.90
2018-06-09T20:44:43.550Z,87.20
2018-06-09T20:47:11.352Z,87.30
2018-06-09T20:49:39.323Z,87.70
2018-06-09T20:52:07.160Z,88.00
2018-06-09T20:54:34.918Z,88.40
2018-06-09T20:57:02.771Z,89.10
2018-06-09T20:59:30.595Z,89.80
2018-06-09T21:01:58.440Z,89.40
2018-06-09T21:04:26.276Z,90.20
2018-06-09T21:06:54.228Z,90.00
2018-06-09T21:09:22.043Z,90.10
2018-06-09T21:11:49.864Z,90.30
2018-06-09T21:14:17.689Z,90.40
2018-06-09T21:16:45.492Z,90.50
2018-06-09T21:19:13.341Z,90.60
2018-06-09T21:21:41.221Z,90.80
2018-06-09T21:24:09.088Z,90.90
2018-06-09T21:26:42.638Z,91.00
2018-06-09T21:29:11.417Z,91.50
2018-06-09T21:32:02.766Z,91.20
2018-06-09T21:34:58.530Z,91.30
2018-06-09T21:40:48.748Z,91.50
2018-06-09T21:43:41.828Z,91.60
2018-06-09T21:49:11.721Z,92.30
2018-06-09T21:51:40.573Z,92.50
2018-06-09T21:57:34.987Z,92.50
2018-06-09T22:00:02.849Z,92.50
2018-06-09T22:02:30.600Z,92.50
2018-06-09T22:04:58.414Z,92.50
2018-06-09T22:07:26.222Z,92.60
2018-06-09T22:10:11.386Z,92.60
2018-06-09T22:12:39.259Z,92.70
2018-06-09T22:15:07.134Z,92.70
2018-06-09T22:17:34.968Z,93.10
2018-06-09T22:20:02.870Z,92.80
2018-06-09T22:22:30.662Z,92.80
2018-06-09T22:24:58.501Z,92.80
2018-06-09T22:27:26.428Z,92.80
2018-06-09T22:29:54.208Z,92.80
2018-06-09T22:32:22.176Z,92.90
2018-06-09T22:34:49.973Z,93.00
2018-06-09T22:37:17.818Z,93.10
2018-06-09T22:39:45.668Z,93.30
2018-06-09T22:42:13.469Z,93.40
2018-06-09T22:44:41.306Z,93.50
2018-06-09T22:47:09.088Z,93.80
2018-06-09T22:49:36.905Z,93.50
2018-06-09T22:52:04.717Z,93.50
2018-06-09T22:54:32.594Z,93.60
2018-06-09T22:57:00.376Z,93.70
2018-06-09T22:59:28.232Z,93.80
2018-06-09T23:01:55.999Z,93.80
2018-06-09T23:04:23.813Z,93.90
2018-06-09T23:06:51.629Z,94.00
2018-06-09T23:09:19.521Z,94.20
2018-06-09T23:11:47.430Z,94.30
2018-06-09T23:14:15.275Z,94.40
2018-06-09T23:16:43.108Z,94.60
2018-06-09T23:21:39.576Z,94.80
2018-06-09T23:24:07.485Z,94.80
2018-06-09T23:26:35.346Z,94.90
2018-06-09T23:29:03.236Z,94.90
2018-06-09T23:31:31.116Z,95.00
2018-06-09T23:33:58.872Z,95.00
2018-06-09T23:36:26.746Z,95.10
2018-06-09T23:38:54.697Z,95.10
2018-06-09T23:41:22.581Z,95.10
2018-06-09T23:43:50.380Z,95.20
2018-06-09T23:46:18.228Z,95.30
2018-06-09T23:48:46.024Z,95.40
2018-06-09T23:51:13.905Z,95.60
2018-06-09T23:53:41.693Z,95.60
2018-06-09T23:56:09.534Z,95.60
2018-06-09T23:58:37.330Z,95.60
